KTVL/TVL METAR and TAF weather

Enter ICAO airport designator
Station Type Date Time Source
KTVL METAR 2019/06/26 05:53 UTC NOAA

KTVL 260553Z AUTO VRB03KT 10SM CLR 11/02 A3006 RMK AO2 SLP127 T01110022 10200 20111 51008


Station Type Date Time Source
KTVL Decoded METAR 2019/06/26 05:53 UTC NOAA

SOUTH LAKE TAHOE AIRPORT, CA, United States (KTVL) 38-53N 119-59W 1925M
Jun 26, 2019 - 01:53 AM EDT / 2019.06.26 0553 UTC
Wind: Variable at 3 MPH (3 KT):0
Visibility: 10 mile(s):0
Sky conditions: clear
Temperature: 52.0 F (11.1 C)
Dew Point: 36.0 F (2.2 C)
Relative Humidity: 54%
Pressure (altimeter): 30.06 in. Hg (1017 hPa)
Pressure tendency: 0.02 inches (0.8 hPa) higher than three hours ago
ob: KTVL 260553Z AUTO VRB03KT 10SM CLR 11/02 A3006 RMK AO2 SLP127 T01110022 10200 20111 51008
cycle: 6

Station Type Date Time Source
KTVL TAF 2019/06/26 06:24 UTC NOAA

TAF KTVL 260523Z 2606/2706 19007KT P6SM SKC
FM261600 20018G26KT P6SM SCT250

Example: see airport list